createdAt,value
2019-04-29T00:00:54.957Z,6.00
2019-04-29T00:03:26.248Z,6.00
2019-04-29T00:05:57.609Z,5.90
2019-04-29T00:08:28.927Z,5.57
2019-04-29T00:11:00.176Z,5.97
2019-04-29T00:13:31.574Z,5.40
2019-04-29T00:16:21.349Z,5.80
2019-04-29T00:19:11.875Z,5.40
2019-04-29T00:21:43.179Z,5.10
2019-04-29T00:24:14.467Z,5.10
2019-04-29T00:26:45.768Z,4.80
2019-04-29T00:29:17.081Z,5.30
2019-04-29T00:31:48.472Z,4.93
2019-04-29T00:34:19.794Z,4.47
2019-04-29T00:37:16.178Z,4.90
2019-04-29T00:40:15.235Z,4.77
2019-04-29T00:42:52.750Z,4.53
2019-04-29T00:45:24.584Z,4.60
2019-04-29T00:47:55.900Z,4.93
2019-04-29T00:50:27.173Z,5.10
2019-04-29T00:52:58.526Z,4.90
2019-04-29T00:55:31.406Z,4.90
2019-04-29T00:58:02.737Z,5.20
2019-04-29T01:00:38.304Z,5.70
2019-04-29T01:03:09.777Z,5.87
2019-04-29T01:05:41.206Z,5.00
2019-04-29T01:08:12.510Z,5.23
2019-04-29T01:10:43.865Z,4.97
2019-04-29T01:13:15.165Z,5.27
2019-04-29T01:15:46.499Z,5.20
2019-04-29T01:18:18.019Z,5.50
2019-04-29T01:20:49.263Z,6.13
2019-04-29T01:23:20.579Z,16.23
2019-04-29T01:25:55.631Z,10.90
2019-04-29T01:28:35.924Z,7.17
2019-04-29T01:31:12.578Z,5.63
2019-04-29T01:33:43.846Z,5.60
2019-04-29T01:36:43.201Z,6.00
2019-04-29T01:39:16.088Z,6.30
2019-04-29T01:42:11.021Z,6.27
2019-04-29T01:44:42.301Z,6.10
2019-04-29T01:47:13.571Z,6.30
2019-04-29T01:49:44.854Z,6.90
2019-04-29T01:52:16.181Z,7.57
2019-04-29T01:54:47.521Z,8.23
2019-04-29T01:57:18.816Z,8.03
2019-04-29T01:59:50.134Z,7.47
2019-04-29T02:02:21.428Z,6.50
2019-04-29T02:04:52.765Z,7.23
2019-04-29T02:07:24.023Z,7.43
2019-04-29T02:10:03.897Z,7.73
2019-04-29T02:12:35.170Z,7.83
2019-04-29T02:15:07.371Z,7.70
2019-04-29T02:17:38.686Z,9.73
2019-04-29T02:20:10.191Z,10.93
2019-04-29T02:23:03.444Z,7.80
2019-04-29T02:25:38.364Z,7.30
2019-04-29T02:28:09.667Z,6.37
2019-04-29T02:30:47.776Z,5.90
2019-04-29T02:33:19.098Z,6.23
2019-04-29T02:35:50.403Z,6.57
2019-04-29T02:38:46.019Z,6.77
2019-04-29T02:41:24.408Z,6.77
2019-04-29T02:43:57.370Z,6.70
2019-04-29T02:46:28.675Z,7.13
2019-04-29T02:48:59.968Z,6.87
2019-04-29T02:51:49.475Z,6.50
2019-04-29T02:54:20.788Z,6.47
2019-04-29T02:56:59.782Z,6.30
2019-04-29T02:59:35.951Z,6.27
2019-04-29T03:02:22.644Z,6.20
2019-04-29T03:05:27.782Z,6.83
2019-04-29T03:07:59.141Z,7.30
2019-04-29T03:10:30.489Z,7.73
2019-04-29T03:13:01.792Z,7.07
2019-04-29T03:15:35.027Z,6.67
2019-04-29T03:18:06.442Z,7.73
2019-04-29T03:20:52.209Z,8.20
2019-04-29T03:23:24.161Z,6.97
2019-04-29T03:25:55.413Z,7.57
2019-04-29T03:28:26.798Z,7.43
2019-04-29T03:30:58.077Z,7.03
2019-04-29T03:33:29.403Z,7.80
2019-04-29T03:36:00.801Z,7.60
2019-04-29T03:38:32.093Z,7.37
2019-04-29T03:41:03.404Z,8.13
2019-04-29T03:43:34.661Z,9.00
2019-04-29T03:46:05.984Z,9.37
2019-04-29T03:48:37.254Z,10.00
2019-04-29T03:51:08.578Z,8.87
2019-04-29T03:53:42.802Z,8.50
2019-04-29T03:56:14.083Z,9.13
2019-04-29T03:58:45.372Z,9.23
2019-04-29T04:01:24.165Z,8.80
2019-04-29T04:03:59.827Z,9.67
2019-04-29T04:06:51.182Z,9.83
2019-04-29T04:09:24.923Z,9.67
2019-04-29T04:11:56.250Z,10.63
2019-04-29T04:14:27.549Z,10.77
2019-04-29T04:17:15.050Z,10.97
2019-04-29T04:19:47.075Z,9.47
2019-04-29T04:22:18.361Z,8.77
2019-04-29T04:24:52.205Z,9.40
2019-04-29T04:27:23.520Z,8.60
2019-04-29T04:29:54.885Z,8.73
2019-04-29T04:32:26.201Z,8.60
2019-04-29T04:34:57.514Z,8.13
2019-04-29T04:37:28.836Z,7.87
2019-04-29T04:40:00.100Z,8.10
2019-04-29T04:42:31.395Z,6.80
2019-04-29T04:45:02.705Z,8.17
2019-04-29T04:47:33.981Z,7.17
2019-04-29T04:50:05.390Z,8.30
2019-04-29T04:52:36.745Z,8.37
2019-04-29T04:55:08.388Z,8.70
2019-04-29T04:57:39.657Z,8.13
2019-04-29T05:00:20.234Z,8.03
2019-04-29T05:02:51.790Z,7.97
2019-04-29T05:05:23.132Z,7.70
2019-04-29T05:07:54.431Z,8.13
2019-04-29T05:10:25.746Z,8.13
2019-04-29T05:12:56.993Z,8.03
2019-04-29T05:15:28.229Z,7.83
2019-04-29T05:17:59.542Z,7.70
2019-04-29T05:20:30.854Z,7.90
2019-04-29T05:23:02.184Z,7.87
2019-04-29T05:25:34.702Z,8.10
2019-04-29T05:28:06.547Z,8.60
2019-04-29T05:30:37.853Z,8.90
2019-04-29T05:33:09.125Z,9.13
2019-04-29T05:35:50.158Z,8.33
2019-04-29T05:38:25.647Z,8.90
2019-04-29T05:40:57.291Z,9.40
2019-04-29T05:43:38.673Z,8.67
2019-04-29T05:46:21.605Z,8.80
2019-04-29T05:48:52.720Z,8.20
2019-04-29T05:51:49.148Z,9.10
2019-04-29T05:54:20.471Z,11.03
2019-04-29T05:56:51.781Z,10.43
2019-04-29T05:59:23.099Z,9.60
2019-04-29T06:01:54.382Z,9.93
2019-04-29T06:04:28.468Z,9.67
2019-04-29T06:06:58.685Z,9.40
2019-04-29T06:09:30.035Z,9.33
2019-04-29T06:12:01.317Z,9.20
2019-04-29T06:14:32.633Z,9.53
2019-04-29T06:17:07.701Z,9.00
2019-04-29T06:19:39.452Z,10.70
2019-04-29T06:22:09.873Z,10.60
2019-04-29T06:24:42.201Z,11.13
2019-04-29T06:27:13.458Z,11.50
2019-04-29T06:29:44.708Z,10.93
2019-04-29T06:32:20.171Z,10.73
2019-04-29T06:34:50.865Z,12.77
2019-04-29T06:37:22.165Z,11.97
2019-04-29T06:39:53.400Z,11.73
2019-04-29T06:42:24.631Z,11.67
2019-04-29T06:44:55.997Z,11.80
2019-04-29T06:47:27.289Z,12.93
2019-04-29T06:49:58.625Z,12.00
2019-04-29T06:52:29.925Z,12.43
2019-04-29T06:55:01.253Z,12.93
2019-04-29T06:57:32.582Z,13.97
2019-04-29T07:00:04.008Z,14.50
2019-04-29T07:02:35.314Z,15.20
2019-04-29T07:05:07.756Z,17.27
2019-04-29T07:07:39.078Z,17.23
2019-04-29T07:10:10.953Z,18.03
2019-04-29T07:12:42.749Z,17.43
2019-04-29T07:15:15.367Z,18.83
2019-04-29T07:17:46.681Z,18.63
2019-04-29T07:20:17.937Z,18.00
2019-04-29T07:22:49.300Z,17.80
2019-04-29T07:25:20.625Z,17.87
2019-04-29T07:27:51.932Z,18.30
2019-04-29T07:30:23.419Z,17.30
2019-04-29T07:32:54.718Z,18.47
2019-04-29T07:35:26.040Z,17.50
2019-04-29T07:37:57.389Z,16.83
2019-04-29T07:40:28.803Z,16.87
2019-04-29T07:43:02.793Z,16.53
2019-04-29T07:45:52.061Z,16.07
2019-04-29T07:48:23.362Z,14.80
2019-04-29T07:50:54.682Z,14.63
2019-04-29T07:53:35.035Z,13.67
2019-04-29T07:56:01.757Z,13.97
2019-04-29T07:58:32.021Z,12.43
2019-04-29T08:01:03.337Z,13.57
2019-04-29T08:03:34.644Z,13.07
2019-04-29T08:06:05.984Z,14.07
2019-04-29T08:08:37.868Z,13.37
2019-04-29T08:11:09.165Z,14.00
2019-04-29T08:13:45.476Z,14.27
2019-04-29T08:16:18.476Z,13.03
2019-04-29T08:18:53.602Z,13.00
2019-04-29T08:21:22.998Z,12.70
2019-04-29T08:23:54.315Z,11.83
2019-04-29T08:26:25.637Z,12.40
2019-04-29T08:29:00.245Z,12.47
2019-04-29T08:31:29.941Z,11.30
2019-04-29T08:34:01.327Z,11.23
2019-04-29T08:36:32.645Z,9.70
2019-04-29T08:39:08.612Z,10.50
2019-04-29T08:41:37.598Z,11.40
2019-04-29T08:44:25.927Z,10.33
2019-04-29T08:47:13.443Z,10.33
2019-04-29T08:49:44.835Z,11.07
2019-04-29T08:52:16.116Z,10.00
2019-04-29T08:54:50.637Z,9.73
2019-04-29T08:57:20.437Z,9.70
2019-04-29T08:59:51.741Z,10.60
2019-04-29T09:02:34.675Z,10.40
2019-04-29T09:04:56.015Z,10.20
2019-04-29T09:07:27.355Z,11.47
2019-04-29T09:10:01.750Z,10.77
2019-04-29T09:12:31.760Z,9.43
2019-04-29T09:15:03.147Z,8.53
2019-04-29T09:17:34.441Z,10.27
2019-04-29T09:20:07.169Z,10.60
2019-04-29T09:22:41.099Z,9.97
2019-04-29T09:25:31.387Z,9.47
2019-04-29T09:28:07.297Z,8.97
2019-04-29T09:30:39.012Z,9.00
2019-04-29T09:33:13.161Z,9.90
2019-04-29T09:35:43.316Z,9.20
2019-04-29T09:38:14.614Z,8.13
2019-04-29T09:40:54.466Z,7.97
2019-04-29T09:43:47.561Z,9.27
2019-04-29T09:46:30.084Z,8.73
2019-04-29T09:48:58.775Z,8.83
2019-04-29T09:51:30.067Z,9.27
2019-04-29T09:54:01.349Z,9.07
2019-04-29T09:56:34.702Z,10.10
2019-04-29T09:59:23.021Z,9.47
2019-04-29T10:02:26.569Z,10.67
2019-04-29T10:05:13.309Z,9.37
2019-04-29T10:07:44.590Z,9.93
2019-04-29T10:10:15.885Z,9.97
2019-04-29T10:12:47.199Z,10.97
2019-04-29T10:15:20.569Z,11.17
2019-04-29T10:18:16.561Z,12.00
2019-04-29T10:20:50.806Z,11.60
2019-04-29T10:23:22.111Z,10.90
2019-04-29T10:25:53.452Z,9.60
2019-04-29T10:28:24.753Z,8.57
2019-04-29T10:30:56.103Z,8.57
2019-04-29T10:33:27.824Z,10.13
2019-04-29T10:35:59.213Z,10.00
2019-04-29T10:38:30.540Z,10.10
2019-04-29T10:41:14.461Z,9.03
2019-04-29T10:44:09.246Z,7.80
2019-04-29T10:46:56.887Z,7.53
2019-04-29T10:49:34.781Z,6.93
2019-04-29T10:52:05.183Z,7.13
2019-04-29T10:54:36.512Z,6.80
2019-04-29T10:57:10.540Z,13.80
2019-04-29T10:59:45.015Z,7.17
2019-04-29T11:02:49.374Z,6.30
2019-04-29T11:05:37.303Z,6.80
2019-04-29T11:08:26.220Z,6.00
2019-04-29T11:11:02.401Z,6.13
2019-04-29T11:13:31.979Z,6.00
2019-04-29T11:16:03.329Z,6.70
2019-04-29T11:18:34.601Z,6.60
2019-04-29T11:21:08.853Z,5.80
2019-04-29T11:23:50.690Z,5.73
2019-04-29T11:26:37.396Z,6.17
2019-04-29T11:29:09.482Z,5.93
2019-04-29T11:31:41.026Z,5.80
2019-04-29T11:34:19.852Z,5.97
2019-04-29T11:36:51.114Z,5.53
2019-04-29T11:39:22.516Z,5.93
2019-04-29T11:41:54.608Z,5.60
2019-04-29T11:44:27.961Z,6.20
2019-04-29T11:46:59.474Z,6.47
2019-04-29T11:49:42.259Z,5.60
2019-04-29T11:52:13.543Z,5.80
2019-04-29T11:54:44.822Z,5.43
2019-04-29T11:57:40.122Z,5.27
2019-04-29T12:00:33.383Z,6.07
2019-04-29T12:03:08.203Z,5.67
2019-04-29T12:05:45.029Z,5.30
2019-04-29T12:08:17.044Z,4.60
2019-04-29T12:11:05.688Z,4.73
2019-04-29T12:13:31.489Z,5.30
2019-04-29T12:16:10.975Z,5.40
2019-04-29T12:18:51.309Z,5.47
2019-04-29T12:21:30.586Z,4.93
2019-04-29T12:24:04.430Z,5.30
2019-04-29T12:26:42.974Z,5.57
2019-04-29T12:29:08.725Z,4.73
2019-04-29T12:32:05.660Z,4.87
2019-04-29T12:35:04.687Z,5.43
2019-04-29T12:38:00.666Z,5.13
2019-04-29T12:40:50.212Z,5.40
2019-04-29T12:43:36.382Z,5.60
2019-04-29T12:46:17.676Z,5.57
2019-04-29T12:48:49.010Z,5.70
2019-04-29T12:51:20.309Z,5.67
2019-04-29T12:53:51.605Z,5.90
2019-04-29T12:56:33.107Z,5.50
2019-04-29T12:59:04.767Z,5.10
2019-04-29T13:02:09.805Z,5.37
2019-04-29T13:04:58.641Z,5.27
2019-04-29T13:07:43.121Z,5.20
2019-04-29T13:10:22.752Z,5.40
2019-04-29T13:12:54.050Z,4.50
2019-04-29T13:15:43.825Z,4.77
2019-04-29T13:18:23.848Z,5.23
2019-04-29T13:21:09.153Z,4.97
2019-04-29T13:23:36.011Z,4.90
2019-04-29T13:26:01.149Z,4.40
2019-04-29T13:28:34.603Z,4.90
2019-04-29T13:31:05.488Z,4.30
2019-04-29T13:33:36.776Z,4.27
2019-04-29T13:36:08.354Z,3.93
2019-04-29T13:38:39.679Z,3.73
2019-04-29T13:41:14.095Z,3.90
2019-04-29T13:43:43.956Z,3.53
2019-04-29T13:46:31.175Z,3.47
2019-04-29T13:49:13.555Z,3.67
2019-04-29T13:51:42.419Z,3.10
2019-04-29T13:54:13.734Z,3.30
2019-04-29T13:56:55.312Z,2.73
2019-04-29T13:59:23.533Z,2.37
2019-04-29T14:02:12.599Z,2.80
2019-04-29T14:04:48.193Z,2.20
2019-04-29T14:07:19.940Z,2.20
2019-04-29T14:09:51.223Z,2.37
2019-04-29T14:14:58.439Z,2.23
2019-04-29T14:17:31.775Z,2.20
2019-04-29T14:18:53.507Z,3.70
2019-04-29T14:20:01.533Z,2.07
2019-04-29T14:22:32.800Z,2.27
2019-04-29T14:25:04.515Z,2.37
2019-04-29T14:27:35.834Z,2.50
2019-04-29T14:30:13.707Z,2.50
2019-04-29T14:32:46.937Z,2.50
2019-04-29T14:35:47.636Z,2.70
2019-04-29T14:38:16.588Z,2.20
2019-04-29T14:40:47.913Z,2.73
2019-04-29T14:43:36.547Z,3.30
2019-04-29T14:46:16.784Z,2.77
2019-04-29T14:48:52.619Z,2.70
2019-04-29T14:51:27.933Z,2.10
2019-04-29T14:54:00.972Z,2.23
2019-04-29T14:56:29.967Z,2.30
2019-04-29T14:59:06.856Z,2.43
2019-04-29T15:01:41.985Z,2.43
2019-04-29T15:04:19.069Z,2.40
2019-04-29T15:06:48.285Z,2.20
2019-04-29T15:09:20.064Z,2.43
2019-04-29T15:11:59.641Z,2.40
2019-04-29T15:14:48.603Z,2.10
2019-04-29T15:17:44.814Z,1.87
2019-04-29T15:20:29.878Z,2.13
2019-04-29T15:22:58.013Z,2.00
2019-04-29T15:25:29.295Z,1.87
2019-04-29T15:28:00.605Z,1.90
2019-04-29T15:30:36.612Z,1.90
2019-04-29T15:33:04.908Z,1.97
2019-04-29T15:35:36.229Z,3.37
2019-04-29T15:38:07.570Z,2.97
2019-04-29T15:40:42.941Z,2.30
2019-04-29T15:43:11.899Z,2.00
2019-04-29T15:45:43.211Z,1.87
2019-04-29T15:48:14.512Z,1.90
2019-04-29T15:50:45.820Z,1.90
2019-04-29T15:53:17.142Z,1.93
2019-04-29T15:55:48.476Z,2.20
2019-04-29T15:58:22.704Z,2.00
2019-04-29T16:00:52.890Z,2.20
2019-04-29T16:03:24.265Z,2.30
2019-04-29T16:06:20.778Z,2.17
2019-04-29T16:08:59.352Z,3.00
2019-04-29T16:11:55.457Z,2.87
2019-04-29T16:14:26.758Z,2.73
2019-04-29T16:16:58.051Z,3.00
2019-04-29T16:19:29.384Z,6.60
2019-04-29T16:22:00.690Z,2.83
2019-04-29T16:24:37.448Z,3.20
2019-04-29T16:27:09.128Z,3.30
2019-04-29T16:29:39.019Z,3.37
2019-04-29T16:32:12.407Z,5.23
2019-04-29T16:34:44.608Z,3.80
2019-04-29T16:37:19.382Z,5.47
2019-04-29T16:39:52.907Z,4.13
2019-04-29T16:42:28.619Z,3.67
2019-04-29T16:44:59.889Z,3.60
2019-04-29T16:47:31.768Z,3.70
2019-04-29T16:50:04.729Z,3.73
2019-04-29T16:52:36.141Z,4.10
2019-04-29T16:55:07.503Z,4.27
2019-04-29T16:57:38.831Z,4.50
2019-04-29T17:00:14.742Z,4.60
2019-04-29T17:02:45.375Z,5.60
2019-04-29T17:05:16.795Z,6.63
2019-04-29T17:07:48.297Z,5.47
2019-04-29T17:10:44.864Z,5.67
2019-04-29T17:13:23.336Z,5.10
2019-04-29T17:15:52.033Z,4.30
2019-04-29T17:18:22.482Z,4.70
2019-04-29T17:20:53.787Z,4.63
2019-04-29T17:23:25.131Z,4.60
2019-04-29T17:25:56.467Z,5.30
2019-04-29T17:28:37.276Z,5.00
2019-04-29T17:31:26.506Z,4.90
2019-04-29T17:34:01.583Z,5.70
2019-04-29T17:36:33.157Z,5.83
2019-04-29T17:39:04.645Z,6.10
2019-04-29T17:41:36.070Z,6.40
2019-04-29T17:44:35.205Z,5.63
2019-04-29T17:47:24.182Z,5.63
2019-04-29T17:50:12.903Z,6.00
2019-04-29T17:52:44.390Z,5.50
2019-04-29T17:55:38.089Z,5.73
2019-04-29T17:58:10.131Z,6.40
2019-04-29T18:01:06.633Z,7.03
2019-04-29T18:04:02.994Z,7.17
2019-04-29T18:06:48.124Z,7.47
2019-04-29T18:09:32.325Z,6.37
2019-04-29T18:12:10.195Z,6.97
2019-04-29T18:14:42.007Z,7.03
2019-04-29T18:17:24.132Z,7.40
2019-04-29T18:20:00.851Z,7.67
2019-04-29T18:23:02.258Z,7.50
2019-04-29T18:25:41.013Z,8.10
2019-04-29T18:28:12.597Z,8.07
2019-04-29T18:30:45.016Z,7.90
2019-04-29T18:33:19.009Z,7.83
2019-04-29T18:35:49.959Z,8.27
2019-04-29T18:38:21.633Z,7.57
2019-04-29T18:40:53.265Z,7.83
2019-04-29T18:43:26.638Z,8.23
2019-04-29T18:45:59.304Z,8.50
2019-04-29T18:48:30.970Z,8.63
2019-04-29T18:51:02.624Z,8.77
2019-04-29T18:53:35.404Z,9.27
2019-04-29T18:56:07.132Z,8.93
2019-04-29T18:58:42.166Z,9.07
2019-04-29T19:01:11.992Z,9.50
2019-04-29T19:03:59.622Z,9.97
2019-04-29T19:06:31.260Z,9.80
2019-04-29T19:09:02.971Z,11.03
2019-04-29T19:11:35.200Z,11.07
2019-04-29T19:14:06.963Z,10.17
2019-04-29T19:16:39.568Z,9.63
2019-04-29T19:19:11.281Z,10.80
2019-04-29T19:21:42.932Z,11.03
2019-04-29T19:24:16.209Z,10.77
2019-04-29T19:26:47.929Z,10.90
2019-04-29T19:29:19.626Z,10.93
2019-04-29T19:31:51.345Z,10.80
2019-04-29T19:34:23.007Z,11.03
2019-04-29T19:36:59.197Z,10.63
2019-04-29T19:39:27.835Z,11.00
2019-04-29T19:41:59.440Z,11.60
2019-04-29T19:44:33.394Z,11.13
2019-04-29T19:47:04.187Z,11.17
2019-04-29T19:49:36.030Z,11.03
2019-04-29T19:52:08.731Z,11.00
2019-04-29T19:54:40.487Z,11.03
2019-04-29T19:57:11.924Z,11.20
2019-04-29T19:59:50.991Z,11.57
2019-04-29T20:02:17.299Z,11.93
2019-04-29T20:05:01.010Z,12.47
2019-04-29T20:07:40.857Z,12.00
2019-04-29T20:10:09.865Z,11.57
2019-04-29T20:12:41.370Z,9.87
2019-04-29T20:15:16.423Z,8.67
2019-04-29T20:18:19.729Z,8.20
2019-04-29T20:20:52.602Z,7.67
2019-04-29T20:23:26.179Z,8.93
2019-04-29T20:26:12.557Z,8.30
2019-04-29T20:28:30.391Z,8.30
2019-04-29T20:31:15.292Z,9.20
2019-04-29T20:33:35.039Z,9.57
2019-04-29T20:36:06.801Z,9.37
2019-04-29T20:38:39.049Z,10.47
2019-04-29T20:41:13.122Z,10.03
2019-04-29T20:43:45.907Z,10.17
2019-04-29T20:46:17.990Z,10.20
2019-04-29T20:48:54.248Z,10.80
2019-04-29T20:51:23.180Z,11.50
2019-04-29T20:54:01.828Z,12.40
2019-04-29T20:56:35.246Z,12.23
2019-04-29T20:59:11.349Z,12.10
2019-04-29T21:01:43.301Z,12.23
2019-04-29T21:04:29.754Z,12.60
2019-04-29T21:06:59.234Z,11.60
2019-04-29T21:09:22.083Z,12.17
2019-04-29T21:12:15.723Z,12.30
2019-04-29T21:14:51.759Z,12.37
2019-04-29T21:17:31.271Z,12.40
2019-04-29T21:19:56.580Z,12.83
2019-04-29T21:22:27.893Z,13.07
2019-04-29T21:24:59.302Z,13.60
2019-04-29T21:27:30.579Z,12.97
2019-04-29T21:30:01.898Z,14.40
2019-04-29T21:32:35.376Z,13.83
2019-04-29T21:35:17.194Z,13.13
2019-04-29T21:37:58.366Z,14.67
2019-04-29T21:40:35.518Z,14.17
2019-04-29T21:43:13.453Z,13.33
2019-04-29T21:45:44.981Z,13.83
2019-04-29T21:48:16.468Z,14.97
2019-04-29T21:50:47.827Z,15.07
2019-04-29T21:53:19.119Z,14.23
2019-04-29T21:55:50.403Z,15.37
2019-04-29T21:58:21.742Z,14.67
2019-04-29T22:00:55.926Z,15.03
2019-04-29T22:03:28.008Z,15.33
2019-04-29T22:06:00.446Z,16.27
2019-04-29T22:08:31.984Z,15.77
2019-04-29T22:11:05.001Z,15.00
2019-04-29T22:13:38.983Z,14.73
2019-04-29T22:16:11.574Z,15.20
2019-04-29T22:18:44.630Z,14.50
2019-04-29T22:21:21.936Z,14.87
2019-04-29T22:23:51.078Z,15.00
2019-04-29T22:26:23.247Z,15.40
2019-04-29T22:29:01.822Z,15.23
2019-04-29T22:31:34.110Z,15.93
2019-04-29T22:34:01.547Z,16.00
2019-04-29T22:36:32.887Z,15.33
2019-04-29T22:39:06.160Z,15.87
2019-04-29T22:42:02.380Z,16.23
2019-04-29T22:44:35.896Z,16.20
2019-04-29T22:47:07.084Z,16.10
2019-04-29T22:49:38.415Z,16.67
2019-04-29T22:52:09.709Z,15.83
2019-04-29T22:54:41.013Z,16.93
2019-04-29T22:57:12.317Z,16.43
2019-04-29T22:59:44.933Z,16.17
2019-04-29T23:02:20.063Z,16.93
2019-04-29T23:04:53.709Z,17.63
2019-04-29T23:07:23.467Z,17.27
2019-04-29T23:09:55.523Z,17.30
2019-04-29T23:12:27.839Z,18.80
2019-04-29T23:14:59.101Z,18.07
2019-04-29T23:17:30.427Z,18.07
2019-04-29T23:20:09.507Z,18.57
2019-04-29T23:22:52.755Z,19.00
2019-04-29T23:25:35.461Z,19.13
2019-04-29T23:28:06.994Z,18.87
2019-04-29T23:30:38.277Z,19.67
2019-04-29T23:33:09.599Z,19.60
2019-04-29T23:35:41.076Z,20.00
2019-04-29T23:38:12.378Z,20.77
2019-04-29T23:40:43.806Z,21.07
2019-04-29T23:43:15.766Z,19.40
2019-04-29T23:45:47.117Z,20.80
2019-04-29T23:48:19.941Z,21.10
2019-04-29T23:50:54.700Z,21.03
2019-04-29T23:53:25.231Z,20.77
2019-04-29T23:56:00.134Z,20.27
2019-04-29T23:58:46.800Z,20.63
